sensor_id;sensor_type;location;lat;lon;timestamp;pressure;altitude;pressure_sealevel;temperature;humidity
20119;BME280;10220;42.716;23.306;2023-05-22T00:01:08;95001.28;;;16.43;100.00
20119;BME280;10220;42.716;23.306;2023-05-22T00:03:34;94986.00;;;16.19;100.00
20119;BME280;10220;42.716;23.306;2023-05-22T00:06:01;94984.72;;;16.21;100.00
20119;BME280;10220;42.716;23.306;2023-05-22T00:08:26;95004.16;;;16.25;100.00
20119;BME280;10220;42.716;23.306;2023-05-22T00:10:53;94985.38;;;16.28;100.00
20119;BME280;10220;42.716;23.306;2023-05-22T00:13:19;94998.84;;;16.37;100.00
20119;BME280;10220;42.716;23.306;2023-05-22T00:15:47;95001.19;;;16.22;100.00
20119;BME280;10220;42.716;23.306;2023-05-22T00:18:13;95007.09;;;16.12;100.00
20119;BME280;10220;42.716;23.306;2023-05-22T00:20:39;95008.44;;;16.15;100.00
20119;BME280;10220;42.716;23.306;2023-05-22T00:23:05;94984.94;;;15.98;100.00
20119;BME280;10220;42.716;23.306;2023-05-22T00:25:35;94984.78;;;16.05;100.00
20119;BME280;10220;42.716;23.306;2023-05-22T00:28:01;95002.09;;;16.11;100.00
20119;BME280;10220;42.716;23.306;2023-05-22T00:30:26;95008.84;;;16.07;100.00
20119;BME280;10220;42.716;23.306;2023-05-22T00:32:51;95003.28;;;16.03;100.00
20119;BME280;10220;42.716;23.306;2023-05-22T00:35:17;94997.84;;;16.05;100.00
20119;BME280;10220;42.716;23.306;2023-05-22T00:37:42;95006.16;;;16.02;100.00
20119;BME280;10220;42.716;23.306;2023-05-22T00:40:12;95004.72;;;15.94;100.00
20119;BME280;10220;42.716;23.306;2023-05-22T00:42:38;94996.19;;;15.83;100.00
20119;BME280;10220;42.716;23.306;2023-05-22T00:45:04;94996.34;;;15.76;100.00
20119;BME280;10220;42.716;23.306;2023-05-22T00:47:30;94997.69;;;15.79;100.00
20119;BME280;10220;42.716;23.306;2023-05-22T00:49:57;95011.53;;;15.95;100.00
20119;BME280;10220;42.716;23.306;2023-05-22T00:52:22;95003.25;;;15.98;100.00
20119;BME280;10220;42.716;23.306;2023-05-22T00:54:51;94976.25;;;15.77;100.00
20119;BME280;10220;42.716;23.306;2023-05-22T00:57:19;94983.69;;;15.68;100.00
20119;BME280;10220;42.716;23.306;2023-05-22T00:59:49;95003.09;;;15.88;100.00
20119;BME280;10220;42.716;23.306;2023-05-22T01:02:15;94997.25;;;15.82;100.00
20119;BME280;10220;42.716;23.306;2023-05-22T01:04:45;94994.59;;;15.98;100.00
20119;BME280;10220;42.716;23.306;2023-05-22T01:07:15;94997.28;;;16.03;100.00
20119;BME280;10220;42.716;23.306;2023-05-22T01:09:42;94990.63;;;15.95;100.00
20119;BME280;10220;42.716;23.306;2023-05-22T01:12:23;94982.09;;;16.00;100.00
20119;BME280;10220;42.716;23.306;2023-05-22T01:20:48;94999.81;;;16.14;100.00
20119;BME280;10220;42.716;23.306;2023-05-22T01:31:40;94980.03;;;16.02;100.00
20119;BME280;10220;42.716;23.306;2023-05-22T01:34:11;94994.25;;;16.11;100.00
20119;BME280;10220;42.716;23.306;2023-05-22T01:36:40;94996.09;;;16.10;100.00
20119;BME280;10220;42.716;23.306;2023-05-22T01:39:10;94984.81;;;15.88;100.00
20119;BME280;10220;42.716;23.306;2023-05-22T01:41:39;94990.44;;;16.18;100.00
20119;BME280;10220;42.716;23.306;2023-05-22T01:44:05;94979.69;;;16.15;100.00
20119;BME280;10220;42.716;23.306;2023-05-22T01:46:31;94995.53;;;16.08;100.00
20119;BME280;10220;42.716;23.306;2023-05-22T01:48:57;94978.81;;;16.09;100.00
20119;BME280;10220;42.716;23.306;2023-05-22T01:54:31;94984.41;;;15.80;100.00
20119;BME280;10220;42.716;23.306;2023-05-22T01:57:20;94981.94;;;15.74;100.00
20119;BME280;10220;42.716;23.306;2023-05-22T02:00:02;94966.03;;;15.91;100.00
20119;BME280;10220;42.716;23.306;2023-05-22T02:02:41;94975.78;;;15.80;100.00
20119;BME280;10220;42.716;23.306;2023-05-22T02:05:19;94957.69;;;15.40;100.00
20119;BME280;10220;42.716;23.306;2023-05-22T02:07:46;94948.31;;;15.12;100.00
20119;BME280;10220;42.716;23.306;2023-05-22T02:10:14;94979.50;;;15.34;100.00
20119;BME280;10220;42.716;23.306;2023-05-22T02:12:46;94955.41;;;15.44;100.00
20119;BME280;10220;42.716;23.306;2023-05-22T02:15:12;94950.91;;;15.93;100.00
20119;BME280;10220;42.716;23.306;2023-05-22T02:17:38;94972.84;;;16.14;100.00
20119;BME280;10220;42.716;23.306;2023-05-22T02:20:13;94971.84;;;16.74;100.00
20119;BME280;10220;42.716;23.306;2023-05-22T02:22:45;94984.13;;;17.00;100.00
20119;BME280;10220;42.716;23.306;2023-05-22T02:25:15;94988.91;;;16.81;100.00
20119;BME280;10220;42.716;23.306;2023-05-22T02:27:42;94961.88;;;16.12;100.00
20119;BME280;10220;42.716;23.306;2023-05-22T02:30:11;94982.75;;;16.28;100.00
20119;BME280;10220;42.716;23.306;2023-05-22T02:32:38;94966.13;;;15.64;100.00
20119;BME280;10220;42.716;23.306;2023-05-22T02:35:07;94982.81;;;15.30;100.00
20119;BME280;10220;42.716;23.306;2023-05-22T02:37:36;94981.31;;;15.34;100.00
20119;BME280;10220;42.716;23.306;2023-05-22T02:40:05;94948.28;;;15.23;100.00
20119;BME280;10220;42.716;23.306;2023-05-22T02:42:31;94941.63;;;15.48;100.00
20119;BME280;10220;42.716;23.306;2023-05-22T02:45:01;94957.19;;;15.60;100.00
20119;BME280;10220;42.716;23.306;2023-05-22T02:47:30;94929.31;;;15.82;100.00
20119;BME280;10220;42.716;23.306;2023-05-22T02:49:58;94951.91;;;16.09;100.00
20119;BME280;10220;42.716;23.306;2023-05-22T02:52:27;94947.84;;;16.60;100.00
20119;BME280;10220;42.716;23.306;2023-05-22T02:54:52;94952.00;;;16.56;100.00
20119;BME280;10220;42.716;23.306;2023-05-22T02:57:17;94960.72;;;16.24;100.00
20119;BME280;10220;42.716;23.306;2023-05-22T03:00:09;94969.81;;;16.38;100.00
20119;BME280;10220;42.716;23.306;2023-05-22T03:02:36;94973.50;;;15.67;100.00
20119;BME280;10220;42.716;23.306;2023-05-22T03:05:03;94952.69;;;16.09;100.00
20119;BME280;10220;42.716;23.306;2023-05-22T03:07:29;94950.09;;;15.93;100.00
20119;BME280;10220;42.716;23.306;2023-05-22T03:09:54;94955.28;;;15.72;100.00
20119;BME280;10220;42.716;23.306;2023-05-22T03:12:22;94963.06;;;16.42;100.00
20119;BME280;10220;42.716;23.306;2023-05-22T03:14:47;94972.09;;;15.97;100.00
20119;BME280;10220;42.716;23.306;2023-05-22T03:17:13;94965.03;;;15.60;100.00
20119;BME280;10220;42.716;23.306;2023-05-22T03:19:38;94969.56;;;15.48;100.00
20119;BME280;10220;42.716;23.306;2023-05-22T03:22:04;94953.09;;;15.31;100.00
20119;BME280;10220;42.716;23.306;2023-05-22T03:24:30;94968.22;;;15.18;100.00
20119;BME280;10220;42.716;23.306;2023-05-22T03:26:57;94969.91;;;14.96;100.00
20119;BME280;10220;42.716;23.306;2023-05-22T03:29:23;94953.69;;;14.50;100.00
20119;BME280;10220;42.716;23.306;2023-05-22T03:31:51;94947.25;;;14.41;100.00
20119;BME280;10220;42.716;23.306;2023-05-22T03:34:17;94957.00;;;15.17;100.00
20119;BME280;10220;42.716;23.306;2023-05-22T03:36:42;94951.31;;;15.20;100.00
20119;BME280;10220;42.716;23.306;2023-05-22T03:39:16;94942.00;;;15.24;100.00
20119;BME280;10220;42.716;23.306;2023-05-22T03:41:41;94934.47;;;15.60;100.00
20119;BME280;10220;42.716;23.306;2023-05-22T03:44:07;94944.75;;;15.67;100.00
20119;BME280;10220;42.716;23.306;2023-05-22T03:46:38;94920.72;;;15.48;100.00
20119;BME280;10220;42.716;23.306;2023-05-22T03:49:07;94929.66;;;15.36;100.00
20119;BME280;10220;42.716;23.306;2023-05-22T03:51:38;94923.97;;;15.93;100.00
20119;BME280;10220;42.716;23.306;2023-05-22T03:54:04;94953.03;;;16.34;100.00
20119;BME280;10220;42.716;23.306;2023-05-22T03:56:29;94970.19;;;16.47;100.00
20119;BME280;10220;42.716;23.306;2023-05-22T03:58:57;94978.56;;;15.73;100.00
20119;BME280;10220;42.716;23.306;2023-05-22T04:01:23;94971.59;;;16.16;100.00
20119;BME280;10220;42.716;23.306;2023-05-22T04:03:48;94968.38;;;16.09;100.00
20119;BME280;10220;42.716;23.306;2023-05-22T04:06:14;94964.66;;;16.43;100.00
20119;BME280;10220;42.716;23.306;2023-05-22T04:08:42;94972.91;;;16.56;100.00
20119;BME280;10220;42.716;23.306;2023-05-22T04:11:17;94978.16;;;17.04;100.00
20119;BME280;10220;42.716;23.306;2023-05-22T04:36:49;94977.34;;;17.25;100.00
20119;BME280;10220;42.716;23.306;2023-05-22T04:54:29;95013.16;;;18.49;100.00
20119;BME280;10220;42.716;23.306;2023-05-22T05:00:23;94973.91;;;18.74;100.00
20119;BME280;10220;42.716;23.306;2023-05-22T05:03:01;95000.66;;;18.66;100.00
20119;BME280;10220;42.716;23.306;2023-05-22T05:12:06;95020.44;;;18.42;100.00
20119;BME280;10220;42.716;23.306;2023-05-22T05:15:06;95007.16;;;19.20;100.00
20119;BME280;10220;42.716;23.306;2023-05-22T05:18:07;95020.06;;;18.65;100.00
20119;BME280;10220;42.716;23.306;2023-05-22T05:20:35;95018.13;;;18.46;100.00
20119;BME280;10220;42.716;23.306;2023-05-22T05:23:01;95000.31;;;18.58;100.00
20119;BME280;10220;42.716;23.306;2023-05-22T05:25:29;95007.66;;;18.15;100.00
20119;BME280;10220;42.716;23.306;2023-05-22T05:28:01;95010.66;;;18.74;100.00
20119;BME280;10220;42.716;23.306;2023-05-22T05:30:36;94991.69;;;19.83;100.00
20119;BME280;10220;42.716;23.306;2023-05-22T05:36:28;94992.50;;;19.93;100.00
20119;BME280;10220;42.716;23.306;2023-05-22T05:39:00;94988.06;;;20.96;100.00
20119;BME280;10220;42.716;23.306;2023-05-22T05:41:31;95005.97;;;21.85;92.75
20119;BME280;10220;42.716;23.306;2023-05-22T05:44:08;95021.94;;;19.85;100.00
20119;BME280;10220;42.716;23.306;2023-05-22T05:46:37;94985.41;;;19.69;100.00
20119;BME280;10220;42.716;23.306;2023-05-22T05:49:24;94982.75;;;19.34;100.00
20119;BME280;10220;42.716;23.306;2023-05-22T05:51:58;94986.38;;;20.47;100.00
20119;BME280;10220;42.716;23.306;2023-05-22T05:55:15;94995.13;;;21.54;93.29
20119;BME280;10220;42.716;23.306;2023-05-22T05:57:59;94989.09;;;20.03;99.09
20119;BME280;10220;42.716;23.306;2023-05-22T06:31:38;95007.44;;;18.67;100.00
20119;BME280;10220;42.716;23.306;2023-05-22T06:40:43;95003.28;;;19.57;97.34
20119;BME280;10220;42.716;23.306;2023-05-22T06:43:44;95003.78;;;19.54;95.50
20119;BME280;10220;42.716;23.306;2023-05-22T06:46:22;94994.44;;;18.92;95.74
20119;BME280;10220;42.716;23.306;2023-05-22T06:48:59;94992.28;;;18.74;99.31
20119;BME280;10220;42.716;23.306;2023-05-22T07:31:12;95012.97;;;19.42;99.28
20119;BME280;10220;42.716;23.306;2023-05-22T07:44:02;95002.47;;;21.09;72.21
20119;BME280;10220;42.716;23.306;2023-05-22T07:53:20;94993.91;;;20.83;76.94
20119;BME280;10220;42.716;23.306;2023-05-22T07:56:04;95004.25;;;21.23;73.21
20119;BME280;10220;42.716;23.306;2023-05-22T07:58:47;94995.38;;;21.57;74.24
20119;BME280;10220;42.716;23.306;2023-05-22T08:01:22;94981.72;;;21.50;66.79
20119;BME280;10220;42.716;23.306;2023-05-22T08:04:03;94983.78;;;21.48;67.08
20119;BME280;10220;42.716;23.306;2023-05-22T08:06:44;94966.00;;;21.25;68.02
20119;BME280;10220;42.716;23.306;2023-05-22T08:09:54;94981.00;;;21.30;71.70
20119;BME280;10220;42.716;23.306;2023-05-22T08:12:37;94968.88;;;21.29;71.04
20119;BME280;10220;42.716;23.306;2023-05-22T08:18:53;95021.03;;;21.80;65.52
20119;BME280;10220;42.716;23.306;2023-05-22T08:21:45;95029.00;;;21.75;68.49
20119;BME280;10220;42.716;23.306;2023-05-22T08:28:24;94984.16;;;21.32;69.70
20119;BME280;10220;42.716;23.306;2023-05-22T08:31:01;94983.38;;;21.31;69.63
20119;BME280;10220;42.716;23.306;2023-05-22T08:33:47;94996.31;;;21.28;71.86
20119;BME280;10220;42.716;23.306;2023-05-22T09:23:00;94974.97;;;22.29;60.16
20119;BME280;10220;42.716;23.306;2023-05-22T09:25:48;94991.91;;;21.95;58.75
20119;BME280;10220;42.716;23.306;2023-05-22T09:54:05;94959.31;;;22.38;60.13
20119;BME280;10220;42.716;23.306;2023-05-22T09:56:34;94980.88;;;22.16;60.80
20119;BME280;10220;42.716;23.306;2023-05-22T09:59:08;94998.38;;;22.41;60.21
20119;BME280;10220;42.716;23.306;2023-05-22T10:01:34;95002.63;;;22.37;63.77
20119;BME280;10220;42.716;23.306;2023-05-22T10:04:01;94996.75;;;21.83;66.22
20119;BME280;10220;42.716;23.306;2023-05-22T10:06:26;94995.41;;;21.42;70.31
20119;BME280;10220;42.716;23.306;2023-05-22T10:08:57;94997.38;;;21.70;68.33
20119;BME280;10220;42.716;23.306;2023-05-22T10:11:24;94999.47;;;21.30;68.62
20119;BME280;10220;42.716;23.306;2023-05-22T10:13:59;94996.13;;;21.15;70.91
20119;BME280;10220;42.716;23.306;2023-05-22T10:16:26;94989.78;;;21.21;70.26
20119;BME280;10220;42.716;23.306;2023-05-22T10:18:52;94993.16;;;21.31;69.46
20119;BME280;10220;42.716;23.306;2023-05-22T10:21:21;94999.63;;;20.95;71.18
20119;BME280;10220;42.716;23.306;2023-05-22T10:23:48;94995.09;;;21.11;70.97
20119;BME280;10220;42.716;23.306;2023-05-22T10:26:15;94995.38;;;21.09;70.40
20119;BME280;10220;42.716;23.306;2023-05-22T10:28:45;94997.09;;;20.80;72.19
20119;BME280;10220;42.716;23.306;2023-05-22T10:33:51;94984.97;;;20.79;72.45
20119;BME280;10220;42.716;23.306;2023-05-22T10:36:50;95000.00;;;20.69;82.23
20119;BME280;10220;42.716;23.306;2023-05-22T10:39:42;95002.75;;;20.24;89.38
20119;BME280;10220;42.716;23.306;2023-05-22T10:42:14;95012.75;;;20.22;90.32
20119;BME280;10220;42.716;23.306;2023-05-22T10:44:40;95016.69;;;20.20;96.74
20119;BME280;10220;42.716;23.306;2023-05-22T10:47:10;95020.38;;;20.19;93.95
20119;BME280;10220;42.716;23.306;2023-05-22T10:49:41;94997.75;;;20.03;88.51
20119;BME280;10220;42.716;23.306;2023-05-22T10:52:07;95003.53;;;20.25;91.21
20119;BME280;10220;42.716;23.306;2023-05-22T10:54:43;94993.28;;;20.13;89.20
20119;BME280;10220;42.716;23.306;2023-05-22T10:57:16;95001.41;;;20.37;88.73
20119;BME280;10220;42.716;23.306;2023-05-22T10:59:46;94977.91;;;20.55;83.62
20119;BME280;10220;42.716;23.306;2023-05-22T11:02:24;94997.31;;;20.84;82.84
20119;BME280;10220;42.716;23.306;2023-05-22T11:04:53;94998.91;;;20.80;77.53
20119;BME280;10220;42.716;23.306;2023-05-22T11:07:19;94955.47;;;20.77;74.12
20119;BME280;10220;42.716;23.306;2023-05-22T11:09:46;94992.19;;;21.07;76.22
20119;BME280;10220;42.716;23.306;2023-05-22T11:15:31;94975.47;;;21.31;75.09
20119;BME280;10220;42.716;23.306;2023-05-22T11:18:01;94969.47;;;21.64;73.79
20119;BME280;10220;42.716;23.306;2023-05-22T11:20:27;94966.28;;;21.67;70.56
20119;BME280;10220;42.716;23.306;2023-05-22T11:23:00;94983.34;;;21.75;72.65
20119;BME280;10220;42.716;23.306;2023-05-22T11:25:27;94979.25;;;21.21;73.94
20119;BME280;10220;42.716;23.306;2023-05-22T11:27:53;94987.88;;;21.31;77.36
20119;BME280;10220;42.716;23.306;2023-05-22T11:30:19;94991.84;;;20.75;81.33
20119;BME280;10220;42.716;23.306;2023-05-22T11:32:48;95012.44;;;20.44;92.69
20119;BME280;10220;42.716;23.306;2023-05-22T11:35:16;94997.75;;;19.78;96.98
20119;BME280;10220;42.716;23.306;2023-05-22T11:37:41;95029.03;;;19.65;88.88
20119;BME280;10220;42.716;23.306;2023-05-22T11:40:12;95038.84;;;18.98;94.80
20119;BME280;10220;42.716;23.306;2023-05-22T11:42:37;95049.44;;;18.62;98.17
20119;BME280;10220;42.716;23.306;2023-05-22T11:45:06;95049.28;;;18.32;94.79
20119;BME280;10220;42.716;23.306;2023-05-22T11:47:32;95054.88;;;18.15;100.00
20119;BME280;10220;42.716;23.306;2023-05-22T11:49:57;95051.44;;;17.47;100.00
20119;BME280;10220;42.716;23.306;2023-05-22T11:52:37;95049.94;;;16.65;100.00
20119;BME280;10220;42.716;23.306;2023-05-22T11:55:04;95048.50;;;16.74;100.00
20119;BME280;10220;42.716;23.306;2023-05-22T11:57:30;95051.03;;;16.69;100.00
20119;BME280;10220;42.716;23.306;2023-05-22T11:59:56;95039.41;;;16.60;100.00
20119;BME280;10220;42.716;23.306;2023-05-22T12:02:22;95045.63;;;16.76;100.00
20119;BME280;10220;42.716;23.306;2023-05-22T12:04:53;95045.56;;;16.92;100.00
20119;BME280;10220;42.716;23.306;2023-05-22T12:07:20;95043.38;;;17.05;100.00
20119;BME280;10220;42.716;23.306;2023-05-22T12:09:46;95043.28;;;17.22;100.00
20119;BME280;10220;42.716;23.306;2023-05-22T12:12:14;95039.00;;;17.37;100.00
20119;BME280;10220;42.716;23.306;2023-05-22T12:14:43;95038.59;;;17.45;100.00
20119;BME280;10220;42.716;23.306;2023-05-22T12:17:11;95037.72;;;17.40;100.00
20119;BME280;10220;42.716;23.306;2023-05-22T12:19:38;95040.13;;;17.46;100.00
20119;BME280;10220;42.716;23.306;2023-05-22T12:22:04;95039.94;;;17.53;100.00
20119;BME280;10220;42.716;23.306;2023-05-22T12:24:43;95039.50;;;17.61;100.00
20119;BME280;10220;42.716;23.306;2023-05-22T12:27:13;95038.50;;;17.66;100.00
20119;BME280;10220;42.716;23.306;2023-05-22T12:29:39;95039.69;;;17.54;100.00
20119;BME280;10220;42.716;23.306;2023-05-22T12:32:09;95039.88;;;17.43;100.00
20119;BME280;10220;42.716;23.306;2023-05-22T12:34:43;95039.63;;;17.44;100.00
20119;BME280;10220;42.716;23.306;2023-05-22T12:37:20;95010.38;;;17.26;100.00
20119;BME280;10220;42.716;23.306;2023-05-22T12:40:02;95033.16;;;17.57;100.00
20119;BME280;10220;42.716;23.306;2023-05-22T12:42:28;95023.34;;;17.42;100.00
20119;BME280;10220;42.716;23.306;2023-05-22T12:44:55;95025.97;;;17.42;100.00
20119;BME280;10220;42.716;23.306;2023-05-22T12:47:22;95032.88;;;17.53;100.00
20119;BME280;10220;42.716;23.306;2023-05-22T12:49:47;95019.19;;;17.46;100.00
20119;BME280;10220;42.716;23.306;2023-05-22T12:52:13;95031.19;;;17.68;100.00
20119;BME280;10220;42.716;23.306;2023-05-22T12:54:39;95030.97;;;17.75;100.00
20119;BME280;10220;42.716;23.306;2023-05-22T12:57:04;95032.47;;;17.66;100.00
20119;BME280;10220;42.716;23.306;2023-05-22T12:59:30;95021.91;;;17.87;100.00
20119;BME280;10220;42.716;23.306;2023-05-22T13:01:56;95030.97;;;18.06;100.00
20119;BME280;10220;42.716;23.306;2023-05-22T13:04:26;95027.19;;;18.24;100.00
20119;BME280;10220;42.716;23.306;2023-05-22T13:06:52;95024.81;;;18.22;100.00
20119;BME280;10220;42.716;23.306;2023-05-22T13:09:17;95014.69;;;18.04;100.00
20119;BME280;10220;42.716;23.306;2023-05-22T13:11:44;95006.25;;;17.97;100.00
20119;BME280;10220;42.716;23.306;2023-05-22T13:14:09;95004.97;;;18.05;100.00
20119;BME280;10220;42.716;23.306;2023-05-22T13:16:35;95009.88;;;18.27;100.00
20119;BME280;10220;42.716;23.306;2023-05-22T13:19:00;94996.81;;;17.96;100.00
20119;BME280;10220;42.716;23.306;2023-05-22T13:21:26;94998.31;;;17.87;100.00
20119;BME280;10220;42.716;23.306;2023-05-22T13:23:51;94978.16;;;17.93;100.00
20119;BME280;10220;42.716;23.306;2023-05-22T13:26:17;94976.66;;;18.02;100.00
20119;BME280;10220;42.716;23.306;2023-05-22T13:28:42;94966.50;;;18.15;100.00
20119;BME280;10220;42.716;23.306;2023-05-22T13:31:07;94960.34;;;18.31;100.00
20119;BME280;10220;42.716;23.306;2023-05-22T13:33:33;94970.09;;;18.45;100.00
20119;BME280;10220;42.716;23.306;2023-05-22T13:35:58;94953.59;;;18.50;100.00
20119;BME280;10220;42.716;23.306;2023-05-22T13:38:24;94963.34;;;18.64;100.00
20119;BME280;10220;42.716;23.306;2023-05-22T13:40:52;94953.38;;;18.61;100.00
20119;BME280;10220;42.716;23.306;2023-05-22T13:43:17;94960.28;;;18.82;100.00
20119;BME280;10220;42.716;23.306;2023-05-22T13:45:43;94934.56;;;18.99;100.00
20119;BME280;10220;42.716;23.306;2023-05-22T13:48:08;94941.47;;;19.15;84.69
20119;BME280;10220;42.716;23.306;2023-05-22T13:50:34;94928.31;;;19.05;75.35
20119;BME280;10220;42.716;23.306;2023-05-22T13:52:59;94923.88;;;19.15;75.84
20119;BME280;10220;42.716;23.306;2023-05-22T13:55:24;94935.97;;;19.41;75.24
20119;BME280;10220;42.716;23.306;2023-05-22T13:57:50;94935.19;;;19.41;75.48
20119;BME280;10220;42.716;23.306;2023-05-22T14:00:16;94922.28;;;19.54;72.59
20119;BME280;10220;42.716;23.306;2023-05-22T14:02:42;94938.84;;;19.64;70.62
20119;BME280;10220;42.716;23.306;2023-05-22T14:05:08;94901.81;;;19.56;72.62
20119;BME280;10220;42.716;23.306;2023-05-22T14:07:34;94927.81;;;19.77;72.74
20119;BME280;10220;42.716;23.306;2023-05-22T14:10:02;94933.88;;;19.78;75.65
20119;BME280;10220;42.716;23.306;2023-05-22T14:12:27;94937.00;;;20.00;75.70
20119;BME280;10220;42.716;23.306;2023-05-22T14:14:53;94918.34;;;19.96;78.50
20119;BME280;10220;42.716;23.306;2023-05-22T14:17:18;94925.13;;;20.22;76.46
20119;BME280;10220;42.716;23.306;2023-05-22T14:19:44;94919.59;;;20.23;76.44
20119;BME280;10220;42.716;23.306;2023-05-22T14:22:09;94909.34;;;20.22;75.50
20119;BME280;10220;42.716;23.306;2023-05-22T14:24:35;94931.63;;;20.49;77.36
20119;BME280;10220;42.716;23.306;2023-05-22T14:27:00;94939.22;;;20.56;78.03
20119;BME280;10220;42.716;23.306;2023-05-22T14:29:26;94939.75;;;20.53;84.20
20119;BME280;10220;42.716;23.306;2023-05-22T14:31:54;94933.25;;;20.20;85.71
20119;BME280;10220;42.716;23.306;2023-05-22T14:34:26;94942.25;;;20.04;88.48
20119;BME280;10220;42.716;23.306;2023-05-22T14:36:51;94954.13;;;19.92;87.66
20119;BME280;10220;42.716;23.306;2023-05-22T14:39:16;94955.44;;;19.70;87.52
20119;BME280;10220;42.716;23.306;2023-05-22T14:41:42;94955.16;;;19.71;86.88
20119;BME280;10220;42.716;23.306;2023-05-22T14:44:07;94954.09;;;19.72;86.49
20119;BME280;10220;42.716;23.306;2023-05-22T14:46:33;94964.09;;;19.75;83.37
20119;BME280;10220;42.716;23.306;2023-05-22T14:48:58;94952.25;;;19.38;94.93
20119;BME280;10220;42.716;23.306;2023-05-22T14:51:24;94958.81;;;19.31;100.00
20119;BME280;10220;42.716;23.306;2023-05-22T14:53:49;94968.25;;;19.22;100.00
20119;BME280;10220;42.716;23.306;2023-05-22T14:56:15;94967.91;;;18.88;100.00
20119;BME280;10220;42.716;23.306;2023-05-22T14:58:40;94959.78;;;18.95;100.00
20119;BME280;10220;42.716;23.306;2023-05-22T15:01:06;94968.94;;;18.87;100.00
20119;BME280;10220;42.716;23.306;2023-05-22T15:03:31;94949.22;;;18.75;100.00
20119;BME280;10220;42.716;23.306;2023-05-22T15:05:56;94977.38;;;18.89;100.00
20119;BME280;10220;42.716;23.306;2023-05-22T15:08:22;94952.44;;;18.92;100.00
20119;BME280;10220;42.716;23.306;2023-05-22T15:10:47;94952.69;;;18.95;100.00
20119;BME280;10220;42.716;23.306;2023-05-22T15:13:13;94963.75;;;19.02;100.00
20119;BME280;10220;42.716;23.306;2023-05-22T15:15:42;94974.56;;;19.16;100.00
20119;BME280;10220;42.716;23.306;2023-05-22T15:18:08;94987.16;;;19.09;100.00
20119;BME280;10220;42.716;23.306;2023-05-22T15:20:33;94965.47;;;18.72;100.00
20119;BME280;10220;42.716;23.306;2023-05-22T15:22:59;94987.59;;;18.86;100.00
20119;BME280;10220;42.716;23.306;2023-05-22T15:25:25;94973.63;;;18.76;100.00
20119;BME280;10220;42.716;23.306;2023-05-22T15:27:50;94974.69;;;18.80;100.00
20119;BME280;10220;42.716;23.306;2023-05-22T15:30:16;94983.00;;;18.57;100.00
20119;BME280;10220;42.716;23.306;2023-05-22T15:32:42;94976.91;;;18.46;100.00
20119;BME280;10220;42.716;23.306;2023-05-22T15:35:08;94982.50;;;18.60;100.00
20119;BME280;10220;42.716;23.306;2023-05-22T15:37:34;94974.31;;;18.51;100.00
20119;BME280;10220;42.716;23.306;2023-05-22T15:40:01;94987.53;;;18.76;100.00
20119;BME280;10220;42.716;23.306;2023-05-22T15:42:30;94980.63;;;18.55;100.00
20119;BME280;10220;42.716;23.306;2023-05-22T15:44:57;94987.22;;;18.63;100.00
20119;BME280;10220;42.716;23.306;2023-05-22T15:47:23;94992.28;;;18.84;100.00
20119;BME280;10220;42.716;23.306;2023-05-22T15:49:48;94988.63;;;18.85;100.00
20119;BME280;10220;42.716;23.306;2023-05-22T15:52:14;94986.69;;;18.56;100.00
20119;BME280;10220;42.716;23.306;2023-05-22T15:54:40;94986.16;;;18.59;100.00
20119;BME280;10220;42.716;23.306;2023-05-22T15:57:05;94997.69;;;18.58;100.00
20119;BME280;10220;42.716;23.306;2023-05-22T15:59:31;94991.63;;;18.47;100.00
20119;BME280;10220;42.716;23.306;2023-05-22T16:01:56;94981.88;;;18.38;100.00
20119;BME280;10220;42.716;23.306;2023-05-22T16:04:22;94968.97;;;18.31;100.00
20119;BME280;10220;42.716;23.306;2023-05-22T16:06:47;94975.94;;;18.16;100.00
20119;BME280;10220;42.716;23.306;2023-05-22T16:09:12;94983.50;;;18.08;100.00
20119;BME280;10220;42.716;23.306;2023-05-22T16:11:40;94988.16;;;18.01;100.00
20119;BME280;10220;42.716;23.306;2023-05-22T16:14:06;94973.47;;;17.95;100.00
20119;BME280;10220;42.716;23.306;2023-05-22T16:16:31;94976.25;;;17.83;100.00
20119;BME280;10220;42.716;23.306;2023-05-22T16:18:57;94950.44;;;17.65;100.00
20119;BME280;10220;42.716;23.306;2023-05-22T16:21:22;94963.59;;;17.70;100.00
20119;BME280;10220;42.716;23.306;2023-05-22T16:23:47;94968.00;;;17.65;100.00
20119;BME280;10220;42.716;23.306;2023-05-22T16:26:13;94953.88;;;17.66;100.00
20119;BME280;10220;42.716;23.306;2023-05-22T16:28:39;94964.09;;;17.36;100.00
20119;BME280;10220;42.716;23.306;2023-05-22T16:31:04;94962.34;;;17.20;100.00
20119;BME280;10220;42.716;23.306;2023-05-22T16:33:30;94959.69;;;17.15;100.00
20119;BME280;10220;42.716;23.306;2023-05-22T16:35:56;94958.25;;;17.24;100.00
20119;BME280;10220;42.716;23.306;2023-05-22T16:38:21;94963.59;;;17.13;100.00
20119;BME280;10220;42.716;23.306;2023-05-22T16:40:46;94945.63;;;16.95;100.00
20119;BME280;10220;42.716;23.306;2023-05-22T16:43:12;94944.53;;;16.91;100.00
20119;BME280;10220;42.716;23.306;2023-05-22T16:45:38;94958.94;;;16.94;100.00
20119;BME280;10220;42.716;23.306;2023-05-22T16:48:04;94946.97;;;16.76;100.00
20119;BME280;10220;42.716;23.306;2023-05-22T16:50:29;94951.78;;;16.84;100.00
20119;BME280;10220;42.716;23.306;2023-05-22T16:52:55;94956.84;;;16.91;100.00
20119;BME280;10220;42.716;23.306;2023-05-22T16:55:20;94963.28;;;16.83;100.00
20119;BME280;10220;42.716;23.306;2023-05-22T16:57:46;94959.41;;;16.86;100.00
20119;BME280;10220;42.716;23.306;2023-05-22T17:00:12;94962.00;;;16.86;100.00
20119;BME280;10220;42.716;23.306;2023-05-22T17:02:38;94945.88;;;16.72;100.00